Terminal Aerodrome Forecast
Issued by NWS

Home | Current Version | Previous Version | Text Only | Print | Product List | Glossary Off
Versions: 1 2 3 4 5 6 7 8 9 10 11 12 13 14 15 16 17 18 19 20 21

173
FTUS43 KBIS 222059 AAA
TAFMOT
TAF AMD
KMOT 222059Z 2221/2318 15018G23KT P6SM OVC025
     FM230100 15011KT P6SM BKN150
     FM230500 18009KT P6SM SCT250
     FM231300 21005KT P6SM BKN130=

USA.gov is the U.S. government's official web portal to all federal, state and local government web resources and services.